sensor_id;sensor_type;location;lat;lon;timestamp;pressure;altitude;pressure_sealevel;temperature;humidity
67980;BME280;54760;47.490;19.030;2022-12-01T00:02:03;100761.12;;;6.91;58.15
67980;BME280;54760;47.490;19.030;2022-12-01T00:04:29;100771.75;;;6.59;59.05
67980;BME280;54760;47.490;19.030;2022-12-01T00:06:54;100760.53;;;6.64;59.48
67980;BME280;54760;47.490;19.030;2022-12-01T00:09:19;100761.56;;;7.00;58.62
67980;BME280;54760;47.490;19.030;2022-12-01T00:12:03;100759.50;;;6.83;58.65
67980;BME280;54760;47.490;19.030;2022-12-01T00:14:29;100770.19;;;6.21;60.34
67980;BME280;54760;47.490;19.030;2022-12-01T00:16:54;100770.28;;;6.32;60.00
67980;BME280;54760;47.490;19.030;2022-12-01T00:19:23;100767.91;;;6.27;60.96
67980;BME280;54760;47.490;19.030;2022-12-01T00:21:49;100758.91;;;5.86;61.30
67980;BME280;54760;47.490;19.030;2022-12-01T00:24:14;100775.28;;;5.63;62.66
67980;BME280;54760;47.490;19.030;2022-12-01T00:26:40;100768.87;;;5.78;62.82
67980;BME280;54760;47.490;19.030;2022-12-01T00:29:05;100774.25;;;5.71;62.96
67980;BME280;54760;47.490;19.030;2022-12-01T00:31:31;100780.63;;;5.86;62.66
67980;BME280;54760;47.490;19.030;2022-12-01T00:33:56;100774.97;;;5.68;63.54
67980;BME280;54760;47.490;19.030;2022-12-01T00:36:22;100781.59;;;5.14;65.35
67980;BME280;54760;47.490;19.030;2022-12-01T00:38:51;100782.31;;;5.11;65.43
67980;BME280;54760;47.490;19.030;2022-12-01T00:41:16;100783.59;;;5.17;65.16
67980;BME280;54760;47.490;19.030;2022-12-01T00:43:42;100778.25;;;5.24;65.39
67980;BME280;54760;47.490;19.030;2022-12-01T00:46:07;100787.72;;;5.64;63.99
67980;BME280;54760;47.490;19.030;2022-12-01T00:48:33;100789.78;;;5.74;63.23
67980;BME280;54760;47.490;19.030;2022-12-01T00:50:58;100777.84;;;5.52;63.76
67980;BME280;54760;47.490;19.030;2022-12-01T00:53:23;100792.59;;;6.11;61.92
67980;BME280;54760;47.490;19.030;2022-12-01T00:55:49;100795.12;;;5.67;62.69
67980;BME280;54760;47.490;19.030;2022-12-01T00:58:14;100786.94;;;5.90;62.26
67980;BME280;54760;47.490;19.030;2022-12-01T01:00:40;100790.66;;;5.82;61.91
67980;BME280;54760;47.490;19.030;2022-12-01T01:03:07;100789.56;;;5.86;62.44
67980;BME280;54760;47.490;19.030;2022-12-01T01:05:39;100788.44;;;5.87;62.24
67980;BME280;54760;47.490;19.030;2022-12-01T01:08:07;100785.97;;;6.08;61.39
67980;BME280;54760;47.490;19.030;2022-12-01T01:10:32;100786.41;;;6.11;61.65
67980;BME280;54760;47.490;19.030;2022-12-01T01:12:58;100781.97;;;5.99;62.14
67980;BME280;54760;47.490;19.030;2022-12-01T01:15:23;100785.31;;;6.19;61.15
67980;BME280;54760;47.490;19.030;2022-12-01T01:17:48;100783.56;;;6.00;62.17
67980;BME280;54760;47.490;19.030;2022-12-01T01:20:14;100782.41;;;6.01;61.56
67980;BME280;54760;47.490;19.030;2022-12-01T01:22:39;100780.09;;;6.40;60.49
67980;BME280;54760;47.490;19.030;2022-12-01T01:25:05;100779.03;;;5.81;61.63
67980;BME280;54760;47.490;19.030;2022-12-01T01:27:30;100779.59;;;5.67;62.63
67980;BME280;54760;47.490;19.030;2022-12-01T01:29:56;100780.72;;;5.63;61.55
67980;BME280;54760;47.490;19.030;2022-12-01T01:32:21;100772.19;;;5.91;60.97
67980;BME280;54760;47.490;19.030;2022-12-01T01:34:46;100769.50;;;5.94;61.16
67980;BME280;54760;47.490;19.030;2022-12-01T01:37:12;100780.28;;;5.87;61.01
67980;BME280;54760;47.490;19.030;2022-12-01T01:39:37;100780.06;;;5.43;62.31
67980;BME280;54760;47.490;19.030;2022-12-01T01:42:02;100788.12;;;5.36;62.39
67980;BME280;54760;47.490;19.030;2022-12-01T01:47:09;100778.31;;;5.58;62.23
67980;BME280;54760;47.490;19.030;2022-12-01T01:49:35;100779.59;;;5.38;62.88
67980;BME280;54760;47.490;19.030;2022-12-01T01:52:01;100775.78;;;5.72;61.79
67980;BME280;54760;47.490;19.030;2022-12-01T01:54:33;100778.75;;;5.60;61.50
67980;BME280;54760;47.490;19.030;2022-12-01T01:57:01;100774.22;;;5.15;63.54
67980;BME280;54760;47.490;19.030;2022-12-01T01:59:36;100777.94;;;5.30;63.24
67980;BME280;54760;47.490;19.030;2022-12-01T02:02:05;100773.59;;;5.25;63.54
67980;BME280;54760;47.490;19.030;2022-12-01T02:04:36;100775.91;;;4.74;64.64
67980;BME280;54760;47.490;19.030;2022-12-01T02:07:03;100765.81;;;5.23;63.52
67980;BME280;54760;47.490;19.030;2022-12-01T02:09:29;100765.34;;;5.44;62.82
67980;BME280;54760;47.490;19.030;2022-12-01T02:12:17;100770.03;;;5.47;62.58
67980;BME280;54760;47.490;19.030;2022-12-01T02:15:29;100773.00;;;5.39;63.06
67980;BME280;54760;47.490;19.030;2022-12-01T02:28:56;100774.69;;;4.94;65.04
67980;BME280;54760;47.490;19.030;2022-12-01T02:31:35;100781.31;;;4.97;64.55
67980;BME280;54760;47.490;19.030;2022-12-01T02:34:12;100773.53;;;4.27;67.47
67980;BME280;54760;47.490;19.030;2022-12-01T02:36:55;100774.22;;;4.66;66.54
67980;BME280;54760;47.490;19.030;2022-12-01T02:39:29;100783.56;;;3.84;70.10
67980;BME280;54760;47.490;19.030;2022-12-01T02:42:13;100775.75;;;4.21;68.69
67980;BME280;54760;47.490;19.030;2022-12-01T02:45:10;100775.66;;;4.60;67.30
67980;BME280;54760;47.490;19.030;2022-12-01T02:47:39;100774.38;;;4.31;67.90
67980;BME280;54760;47.490;19.030;2022-12-01T02:50:07;100774.06;;;4.13;68.56
67980;BME280;54760;47.490;19.030;2022-12-01T02:52:34;100760.59;;;3.98;69.92
67980;BME280;54760;47.490;19.030;2022-12-01T02:54:59;100766.41;;;4.19;69.56
67980;BME280;54760;47.490;19.030;2022-12-01T02:57:25;100765.53;;;4.57;67.91
67980;BME280;54760;47.490;19.030;2022-12-01T02:59:52;100766.28;;;4.54;67.36
67980;BME280;54760;47.490;19.030;2022-12-01T03:02:36;100762.03;;;4.79;66.23
67980;BME280;54760;47.490;19.030;2022-12-01T03:10:53;100770.91;;;4.11;68.77
67980;BME280;54760;47.490;19.030;2022-12-01T03:13:37;100773.28;;;4.35;68.03
67980;BME280;54760;47.490;19.030;2022-12-01T03:18:53;100778.63;;;4.09;68.96
67980;BME280;54760;47.490;19.030;2022-12-01T03:24:03;100767.78;;;3.71;70.92
67980;BME280;54760;47.490;19.030;2022-12-01T03:26:31;100763.13;;;4.52;68.28
67980;BME280;54760;47.490;19.030;2022-12-01T03:29:02;100757.16;;;4.20;69.53
67980;BME280;54760;47.490;19.030;2022-12-01T03:31:32;100767.78;;;3.90;71.24
67980;BME280;54760;47.490;19.030;2022-12-01T03:34:04;100760.53;;;3.94;70.83
67980;BME280;54760;47.490;19.030;2022-12-01T03:38:59;100751.44;;;4.48;68.85
67980;BME280;54760;47.490;19.030;2022-12-01T03:41:32;100750.03;;;4.80;67.73
67980;BME280;54760;47.490;19.030;2022-12-01T03:44:07;100746.75;;;4.03;69.70
67980;BME280;54760;47.490;19.030;2022-12-01T03:47:09;100748.78;;;4.28;68.98
67980;BME280;54760;47.490;19.030;2022-12-01T03:49:38;100751.59;;;4.13;69.91
67980;BME280;54760;47.490;19.030;2022-12-01T03:57:40;100750.31;;;4.07;70.17
67980;BME280;54760;47.490;19.030;2022-12-01T04:00:07;100741.00;;;4.50;68.99
67980;BME280;54760;47.490;19.030;2022-12-01T04:02:33;100752.81;;;4.15;69.69
67980;BME280;54760;47.490;19.030;2022-12-01T04:04:58;100759.63;;;4.28;69.10
67980;BME280;54760;47.490;19.030;2022-12-01T04:07:23;100743.78;;;4.53;66.81
67980;BME280;54760;47.490;19.030;2022-12-01T04:09:49;100750.25;;;4.03;69.01
67980;BME280;54760;47.490;19.030;2022-12-01T04:12:14;100757.50;;;4.18;68.23
67980;BME280;54760;47.490;19.030;2022-12-01T04:15:04;100751.59;;;4.35;68.04
67980;BME280;54760;47.490;19.030;2022-12-01T04:17:30;100740.91;;;4.43;67.26
67980;BME280;54760;47.490;19.030;2022-12-01T04:19:56;100745.87;;;4.18;65.76
67980;BME280;54760;47.490;19.030;2022-12-01T04:22:22;100742.84;;;4.00;67.01
67980;BME280;54760;47.490;19.030;2022-12-01T04:24:48;100739.34;;;4.00;66.62
67980;BME280;54760;47.490;19.030;2022-12-01T04:27:13;100737.44;;;4.00;67.23
67980;BME280;54760;47.490;19.030;2022-12-01T04:29:38;100741.53;;;4.13;66.55
67980;BME280;54760;47.490;19.030;2022-12-01T04:32:04;100731.69;;;4.24;67.03
67980;BME280;54760;47.490;19.030;2022-12-01T04:34:29;100748.31;;;4.46;66.72
67980;BME280;54760;47.490;19.030;2022-12-01T04:36:55;100754.19;;;4.28;67.26
67980;BME280;54760;47.490;19.030;2022-12-01T04:39:20;100747.53;;;4.03;68.13
67980;BME280;54760;47.490;19.030;2022-12-01T04:41:46;100748.41;;;3.69;69.65
67980;BME280;54760;47.490;19.030;2022-12-01T04:44:12;100756.22;;;4.12;68.67
67980;BME280;54760;47.490;19.030;2022-12-01T04:46:37;100761.94;;;4.07;68.60
67980;BME280;54760;47.490;19.030;2022-12-01T04:49:03;100771.63;;;3.70;69.14
67980;BME280;54760;47.490;19.030;2022-12-01T04:51:29;100776.22;;;3.85;69.56
67980;BME280;54760;47.490;19.030;2022-12-01T04:53:55;100776.28;;;4.30;67.57
67980;BME280;54760;47.490;19.030;2022-12-01T04:56:22;100777.19;;;4.15;67.83
67980;BME280;54760;47.490;19.030;2022-12-01T04:58:47;100774.62;;;3.84;68.65
67980;BME280;54760;47.490;19.030;2022-12-01T05:01:14;100774.47;;;3.96;68.82
67980;BME280;54760;47.490;19.030;2022-12-01T05:03:42;100772.97;;;3.41;70.62
67980;BME280;54760;47.490;19.030;2022-12-01T05:06:14;100782.75;;;4.03;68.37
67980;BME280;54760;47.490;19.030;2022-12-01T05:08:40;100780.47;;;4.05;68.73
67980;BME280;54760;47.490;19.030;2022-12-01T05:11:05;100771.69;;;4.54;66.71
67980;BME280;54760;47.490;19.030;2022-12-01T05:13:40;100769.63;;;4.24;67.74
67980;BME280;54760;47.490;19.030;2022-12-01T05:16:12;100759.28;;;3.91;68.59
67980;BME280;54760;47.490;19.030;2022-12-01T05:18:38;100766.34;;;3.23;70.93
67980;BME280;54760;47.490;19.030;2022-12-01T05:21:06;100766.47;;;3.45;71.56
67980;BME280;54760;47.490;19.030;2022-12-01T05:23:33;100770.50;;;3.52;71.46
67980;BME280;54760;47.490;19.030;2022-12-01T05:25:59;100764.44;;;3.58;70.39
67980;BME280;54760;47.490;19.030;2022-12-01T05:28:25;100766.00;;;3.24;72.18
67980;BME280;54760;47.490;19.030;2022-12-01T05:30:52;100759.91;;;3.27;72.34
67980;BME280;54760;47.490;19.030;2022-12-01T05:33:18;100761.78;;;2.60;74.33
67980;BME280;54760;47.490;19.030;2022-12-01T05:35:44;100766.72;;;3.21;72.88
67980;BME280;54760;47.490;19.030;2022-12-01T05:38:09;100765.31;;;4.01;69.75
67980;BME280;54760;47.490;19.030;2022-12-01T05:40:35;100773.28;;;3.74;70.73
67980;BME280;54760;47.490;19.030;2022-12-01T05:43:01;100767.16;;;3.42;71.58
67980;BME280;54760;47.490;19.030;2022-12-01T05:45:26;100769.44;;;3.75;70.37
67980;BME280;54760;47.490;19.030;2022-12-01T05:47:56;100769.56;;;3.28;71.74
67980;BME280;54760;47.490;19.030;2022-12-01T05:50:22;100766.28;;;3.19;72.46
67980;BME280;54760;47.490;19.030;2022-12-01T05:52:48;100770.91;;;3.03;73.27
67980;BME280;54760;47.490;19.030;2022-12-01T05:55:13;100766.25;;;2.69;74.28
67980;BME280;54760;47.490;19.030;2022-12-01T05:57:39;100775.38;;;2.80;74.70
67980;BME280;54760;47.490;19.030;2022-12-01T06:00:07;100768.41;;;3.45;72.26
67980;BME280;54760;47.490;19.030;2022-12-01T06:02:32;100778.22;;;3.53;71.62
67980;BME280;54760;47.490;19.030;2022-12-01T06:04:57;100774.12;;;3.24;73.08
67980;BME280;54760;47.490;19.030;2022-12-01T06:07:23;100781.38;;;3.20;72.76
67980;BME280;54760;47.490;19.030;2022-12-01T06:09:50;100777.69;;;3.63;71.72
67980;BME280;54760;47.490;19.030;2022-12-01T06:12:16;100778.53;;;3.32;72.23
67980;BME280;54760;47.490;19.030;2022-12-01T06:14:42;100786.25;;;3.30;72.35
67980;BME280;54760;47.490;19.030;2022-12-01T06:17:07;100789.37;;;3.32;73.10
67980;BME280;54760;47.490;19.030;2022-12-01T06:19:33;100788.75;;;3.39;72.30
67980;BME280;54760;47.490;19.030;2022-12-01T06:21:58;100787.75;;;3.47;71.77
67980;BME280;54760;47.490;19.030;2022-12-01T06:24:23;100792.84;;;3.48;71.73
67980;BME280;54760;47.490;19.030;2022-12-01T06:26:49;100801.28;;;4.01;69.82
67980;BME280;54760;47.490;19.030;2022-12-01T06:29:14;100792.03;;;3.83;70.96
67980;BME280;54760;47.490;19.030;2022-12-01T06:31:40;100790.88;;;4.22;69.18
67980;BME280;54760;47.490;19.030;2022-12-01T06:34:06;100796.13;;;3.58;71.06
67980;BME280;54760;47.490;19.030;2022-12-01T06:36:31;100798.00;;;2.72;75.47
67980;BME280;54760;47.490;19.030;2022-12-01T06:38:57;100797.16;;;3.69;73.34
67980;BME280;54760;47.490;19.030;2022-12-01T06:41:22;100794.03;;;3.86;72.70
67980;BME280;54760;47.490;19.030;2022-12-01T06:43:47;100788.16;;;3.65;71.83
67980;BME280;54760;47.490;19.030;2022-12-01T06:46:13;100795.03;;;2.77;75.53
67980;BME280;54760;47.490;19.030;2022-12-01T06:48:38;100789.59;;;3.78;72.47
67980;BME280;54760;47.490;19.030;2022-12-01T06:51:04;100788.44;;;3.25;74.08
67980;BME280;54760;47.490;19.030;2022-12-01T06:53:29;100791.00;;;3.72;71.99
67980;BME280;54760;47.490;19.030;2022-12-01T06:56:02;100791.50;;;3.58;72.76
67980;BME280;54760;47.490;19.030;2022-12-01T06:58:28;100783.84;;;3.44;72.90
67980;BME280;54760;47.490;19.030;2022-12-01T07:00:54;100790.03;;;3.80;72.05
67980;BME280;54760;47.490;19.030;2022-12-01T07:03:19;100786.72;;;3.52;72.90
67980;BME280;54760;47.490;19.030;2022-12-01T07:05:54;100790.72;;;3.58;73.44
67980;BME280;54760;47.490;19.030;2022-12-01T07:08:20;100797.09;;;4.04;71.66
67980;BME280;54760;47.490;19.030;2022-12-01T07:10:45;100794.31;;;3.81;72.31
67980;BME280;54760;47.490;19.030;2022-12-01T07:13:19;100794.62;;;3.25;75.43
67980;BME280;54760;47.490;19.030;2022-12-01T07:15:45;100794.66;;;2.94;77.81
67980;BME280;54760;47.490;19.030;2022-12-01T07:18:10;100800.59;;;2.84;78.33
67980;BME280;54760;47.490;19.030;2022-12-01T07:20:36;100795.25;;;3.19;76.56
67980;BME280;54760;47.490;19.030;2022-12-01T07:23:01;100795.94;;;3.31;76.37
67980;BME280;54760;47.490;19.030;2022-12-01T07:25:26;100805.28;;;4.07;74.04
67980;BME280;54760;47.490;19.030;2022-12-01T07:27:52;100791.16;;;4.17;73.05
67980;BME280;54760;47.490;19.030;2022-12-01T07:30:17;100797.59;;;4.09;73.51
67980;BME280;54760;47.490;19.030;2022-12-01T07:32:42;100805.12;;;4.39;72.40
67980;BME280;54760;47.490;19.030;2022-12-01T07:35:08;100801.59;;;4.15;72.48
67980;BME280;54760;47.490;19.030;2022-12-01T07:37:34;100799.50;;;4.51;71.19
67980;BME280;54760;47.490;19.030;2022-12-01T07:39:59;100794.13;;;4.73;70.76
67980;BME280;54760;47.490;19.030;2022-12-01T07:42:25;100800.34;;;4.74;70.66
67980;BME280;54760;47.490;19.030;2022-12-01T07:44:50;100806.84;;;4.27;72.62
67980;BME280;54760;47.490;19.030;2022-12-01T07:47:15;100798.19;;;4.41;72.13
67980;BME280;54760;47.490;19.030;2022-12-01T07:49:41;100803.84;;;4.32;72.07
67980;BME280;54760;47.490;19.030;2022-12-01T07:52:06;100800.31;;;4.09;73.41
67980;BME280;54760;47.490;19.030;2022-12-01T07:54:31;100799.00;;;4.03;73.88
67980;BME280;54760;47.490;19.030;2022-12-01T07:56:57;100803.34;;;3.88;74.31
67980;BME280;54760;47.490;19.030;2022-12-01T07:59:22;100806.13;;;3.73;75.28
67980;BME280;54760;47.490;19.030;2022-12-01T08:01:47;100805.84;;;3.78;74.92
67980;BME280;54760;47.490;19.030;2022-12-01T08:04:13;100810.34;;;3.89;73.40
67980;BME280;54760;47.490;19.030;2022-12-01T08:06:38;100813.97;;;3.78;73.33
67980;BME280;54760;47.490;19.030;2022-12-01T08:09:03;100810.97;;;3.64;73.57
67980;BME280;54760;47.490;19.030;2022-12-01T08:11:29;100805.88;;;3.62;73.11
67980;BME280;54760;47.490;19.030;2022-12-01T08:13:54;100815.31;;;3.68;72.83
67980;BME280;54760;47.490;19.030;2022-12-01T08:16:22;100807.34;;;3.75;72.50
67980;BME280;54760;47.490;19.030;2022-12-01T08:18:48;100806.84;;;4.08;71.23
67980;BME280;54760;47.490;19.030;2022-12-01T08:21:15;100810.56;;;4.00;71.51
67980;BME280;54760;47.490;19.030;2022-12-01T08:23:41;100806.78;;;4.24;70.77
67980;BME280;54760;47.490;19.030;2022-12-01T08:26:11;100803.09;;;4.35;70.35
67980;BME280;54760;47.490;19.030;2022-12-01T08:28:37;100806.97;;;4.34;69.51
67980;BME280;54760;47.490;19.030;2022-12-01T08:31:14;100802.19;;;4.28;70.06
67980;BME280;54760;47.490;19.030;2022-12-01T08:33:39;100800.56;;;4.23;70.48
67980;BME280;54760;47.490;19.030;2022-12-01T08:36:05;100799.59;;;4.77;68.50
67980;BME280;54760;47.490;19.030;2022-12-01T08:38:31;100803.19;;;4.85;68.60
67980;BME280;54760;47.490;19.030;2022-12-01T08:41:07;100808.31;;;4.90;67.64
67980;BME280;54760;47.490;19.030;2022-12-01T08:43:33;100815.44;;;4.75;68.26
67980;BME280;54760;47.490;19.030;2022-12-01T08:46:03;100817.78;;;4.54;69.21
67980;BME280;54760;47.490;19.030;2022-12-01T08:48:29;100817.50;;;4.59;69.02
67980;BME280;54760;47.490;19.030;2022-12-01T08:51:04;100823.72;;;4.82;68.31
67980;BME280;54760;47.490;19.030;2022-12-01T08:53:31;100815.88;;;4.54;68.89
67980;BME280;54760;47.490;19.030;2022-12-01T08:56:09;100806.56;;;5.01;66.97
67980;BME280;54760;47.490;19.030;2022-12-01T08:58:35;100811.53;;;4.95;67.43
67980;BME280;54760;47.490;19.030;2022-12-01T09:01:05;100805.63;;;4.67;68.15
67980;BME280;54760;47.490;19.030;2022-12-01T09:03:35;100811.62;;;4.79;67.87
67980;BME280;54760;47.490;19.030;2022-12-01T09:08:29;100802.87;;;5.65;65.33
67980;BME280;54760;47.490;19.030;2022-12-01T09:10:55;100804.88;;;5.98;64.39
67980;BME280;54760;47.490;19.030;2022-12-01T09:13:21;100803.75;;;6.02;63.27
67980;BME280;54760;47.490;19.030;2022-12-01T09:15:54;100803.69;;;5.69;64.36
67980;BME280;54760;47.490;19.030;2022-12-01T09:18:19;100806.56;;;6.09;63.52
67980;BME280;54760;47.490;19.030;2022-12-01T09:20:45;100802.09;;;6.28;63.10
67980;BME280;54760;47.490;19.030;2022-12-01T09:23:11;100791.00;;;6.06;62.96
67980;BME280;54760;47.490;19.030;2022-12-01T09:25:36;100796.63;;;6.24;62.25
67980;BME280;54760;47.490;19.030;2022-12-01T09:28:02;100796.34;;;6.33;62.48
67980;BME280;54760;47.490;19.030;2022-12-01T09:30:27;100790.00;;;6.22;62.26
67980;BME280;54760;47.490;19.030;2022-12-01T09:32:52;100788.00;;;6.15;61.17
67980;BME280;54760;47.490;19.030;2022-12-01T09:35:18;100791.03;;;6.10;61.01
67980;BME280;54760;47.490;19.030;2022-12-01T09:37:43;100783.56;;;6.37;60.84
67980;BME280;54760;47.490;19.030;2022-12-01T09:40:12;100788.25;;;6.40;59.95
67980;BME280;54760;47.490;19.030;2022-12-01T09:42:38;100778.44;;;6.69;58.70
67980;BME280;54760;47.490;19.030;2022-12-01T09:45:06;100779.72;;;6.85;58.16
67980;BME280;54760;47.490;19.030;2022-12-01T09:47:35;100776.28;;;6.92;58.46
67980;BME280;54760;47.490;19.030;2022-12-01T09:50:03;100791.59;;;6.63;58.06
67980;BME280;54760;47.490;19.030;2022-12-01T09:52:45;100778.31;;;6.55;59.27
67980;BME280;54760;47.490;19.030;2022-12-01T09:55:14;100774.50;;;6.66;58.24
67980;BME280;54760;47.490;19.030;2022-12-01T09:57:41;100773.78;;;6.69;58.67
67980;BME280;54760;47.490;19.030;2022-12-01T10:00:19;100774.78;;;6.98;57.96
67980;BME280;54760;47.490;19.030;2022-12-01T10:05:23;100768.81;;;6.82;58.54
67980;BME280;54760;47.490;19.030;2022-12-01T10:07:57;100762.94;;;7.27;57.06
67980;BME280;54760;47.490;19.030;2022-12-01T10:10:29;100761.97;;;6.99;57.90
67980;BME280;54760;47.490;19.030;2022-12-01T10:12:54;100772.72;;;6.84;57.95
67980;BME280;54760;47.490;19.030;2022-12-01T10:15:38;100762.69;;;6.92;58.42
67980;BME280;54760;47.490;19.030;2022-12-01T10:21:07;100761.25;;;6.61;58.82
67980;BME280;54760;47.490;19.030;2022-12-01T10:26:29;100758.69;;;6.79;58.00
67980;BME280;54760;47.490;19.030;2022-12-01T10:29:11;100753.59;;;6.74;58.36
67980;BME280;54760;47.490;19.030;2022-12-01T10:31:41;100752.16;;;6.90;57.86
67980;BME280;54760;47.490;19.030;2022-12-01T10:34:16;100741.78;;;7.07;57.19
67980;BME280;54760;47.490;19.030;2022-12-01T10:36:41;100741.81;;;7.14;57.28
67980;BME280;54760;47.490;19.030;2022-12-01T10:39:15;100738.37;;;7.20;56.59
67980;BME280;54760;47.490;19.030;2022-12-01T10:41:41;100731.59;;;6.96;57.33
67980;BME280;54760;47.490;19.030;2022-12-01T10:44:08;100736.03;;;7.19;57.24
67980;BME280;54760;47.490;19.030;2022-12-01T10:46:44;100741.53;;;7.29;56.53
67980;BME280;54760;47.490;19.030;2022-12-01T10:49:15;100733.00;;;7.38;56.45
67980;BME280;54760;47.490;19.030;2022-12-01T10:51:57;100735.44;;;7.50;56.06
67980;BME280;54760;47.490;19.030;2022-12-01T10:54:35;100733.06;;;7.45;56.44
67980;BME280;54760;47.490;19.030;2022-12-01T10:57:02;100736.50;;;7.35;56.55
67980;BME280;54760;47.490;19.030;2022-12-01T11:01:58;100726.75;;;7.27;56.69
67980;BME280;54760;47.490;19.030;2022-12-01T11:06:50;100731.34;;;7.16;57.57
67980;BME280;54760;47.490;19.030;2022-12-01T11:09:27;100728.22;;;7.14;57.50
67980;BME280;54760;47.490;19.030;2022-12-01T11:11:58;100719.75;;;7.29;56.72
67980;BME280;54760;47.490;19.030;2022-12-01T11:14:43;100725.37;;;6.92;58.03
67980;BME280;54760;47.490;19.030;2022-12-01T11:17:42;100711.41;;;6.97;58.27
67980;BME280;54760;47.490;19.030;2022-12-01T11:20:28;100712.69;;;7.18;57.96
67980;BME280;54760;47.490;19.030;2022-12-01T11:25:55;100708.06;;;7.25;57.57
67980;BME280;54760;47.490;19.030;2022-12-01T11:28:22;100709.16;;;7.14;57.67
67980;BME280;54760;47.490;19.030;2022-12-01T11:31:04;100698.66;;;7.16;57.96
67980;BME280;54760;47.490;19.030;2022-12-01T11:33:42;100699.88;;;7.22;57.52
67980;BME280;54760;47.490;19.030;2022-12-01T11:36:08;100703.53;;;7.54;57.13
67980;BME280;54760;47.490;19.030;2022-12-01T11:38:34;100701.31;;;7.92;56.32
67980;BME280;54760;47.490;19.030;2022-12-01T11:41:00;100696.56;;;7.67;56.50
67980;BME280;54760;47.490;19.030;2022-12-01T11:43:34;100701.28;;;7.77;56.50
67980;BME280;54760;47.490;19.030;2022-12-01T11:46:05;100687.28;;;7.82;55.98
67980;BME280;54760;47.490;19.030;2022-12-01T11:48:34;100700.91;;;7.82;55.80
67980;BME280;54760;47.490;19.030;2022-12-01T11:53:44;100696.59;;;7.71;56.10
67980;BME280;54760;47.490;19.030;2022-12-01T11:56:21;100698.91;;;7.65;55.79
67980;BME280;54760;47.490;19.030;2022-12-01T11:58:53;100701.31;;;7.84;55.48
67980;BME280;54760;47.490;19.030;2022-12-01T12:04:15;100691.88;;;7.57;56.44
67980;BME280;54760;47.490;19.030;2022-12-01T12:12:13;100682.44;;;7.37;57.65
67980;BME280;54760;47.490;19.030;2022-12-01T12:14:58;100687.78;;;8.66;55.03
67980;BME280;54760;47.490;19.030;2022-12-01T12:31:37;100672.81;;;12.55;43.68
67980;BME280;54760;47.490;19.030;2022-12-01T12:39:39;100663.72;;;14.64;38.85
67980;BME280;54760;47.490;19.030;2022-12-01T12:42:24;100664.50;;;15.10;37.60
67980;BME280;54760;47.490;19.030;2022-12-01T12:48:00;100670.53;;;14.60;37.90
67980;BME280;54760;47.490;19.030;2022-12-01T12:50:47;100663.28;;;14.33;39.10
67980;BME280;54760;47.490;19.030;2022-12-01T12:53:21;100664.09;;;14.50;38.34
67980;BME280;54760;47.490;19.030;2022-12-01T12:55:51;100662.03;;;14.54;38.12
67980;BME280;54760;47.490;19.030;2022-12-01T12:58:33;100667.22;;;14.32;38.36
67980;BME280;54760;47.490;19.030;2022-12-01T13:01:03;100666.03;;;13.45;40.18
67980;BME280;54760;47.490;19.030;2022-12-01T13:06:13;100675.13;;;12.06;42.90
67980;BME280;54760;47.490;19.030;2022-12-01T13:08:47;100675.34;;;11.58;44.63
67980;BME280;54760;47.490;19.030;2022-12-01T13:11:20;100661.47;;;11.05;45.52
67980;BME280;54760;47.490;19.030;2022-12-01T13:14:09;100663.47;;;11.01;45.98
67980;BME280;54760;47.490;19.030;2022-12-01T13:16:43;100652.06;;;10.68;46.97
67980;BME280;54760;47.490;19.030;2022-12-01T13:19:21;100664.63;;;10.62;47.35
67980;BME280;54760;47.490;19.030;2022-12-01T13:21:49;100667.53;;;10.45;47.62
67980;BME280;54760;47.490;19.030;2022-12-01T13:24:21;100666.31;;;10.49;47.92
67980;BME280;54760;47.490;19.030;2022-12-01T13:29:36;100667.09;;;10.50;47.83
67980;BME280;54760;47.490;19.030;2022-12-01T13:32:04;100664.22;;;10.12;48.55
67980;BME280;54760;47.490;19.030;2022-12-01T13:37:02;100665.16;;;9.88;49.37
67980;BME280;54760;47.490;19.030;2022-12-01T13:39:30;100669.84;;;9.87;49.53
67980;BME280;54760;47.490;19.030;2022-12-01T13:42:16;100670.09;;;9.34;50.68
67980;BME280;54760;47.490;19.030;2022-12-01T13:44:49;100676.06;;;8.87;52.85
67980;BME280;54760;47.490;19.030;2022-12-01T13:49:42;100670.53;;;9.22;51.52
67980;BME280;54760;47.490;19.030;2022-12-01T13:57:27;100665.88;;;9.12;52.00
67980;BME280;54760;47.490;19.030;2022-12-01T14:02:32;100671.41;;;8.84;53.07
67980;BME280;54760;47.490;19.030;2022-12-01T14:08:14;100670.22;;;8.85;53.01
67980;BME280;54760;47.490;19.030;2022-12-01T14:10:52;100660.03;;;9.06;52.29
67980;BME280;54760;47.490;19.030;2022-12-01T14:13:19;100663.19;;;8.91;52.78
67980;BME280;54760;47.490;19.030;2022-12-01T14:15:55;100671.78;;;8.86;53.34
67980;BME280;54760;47.490;19.030;2022-12-01T14:18:24;100664.41;;;8.72;53.74
67980;BME280;54760;47.490;19.030;2022-12-01T14:20:51;100664.81;;;8.39;54.92
67980;BME280;54760;47.490;19.030;2022-12-01T14:23:28;100664.41;;;8.33;55.13
67980;BME280;54760;47.490;19.030;2022-12-01T14:26:11;100661.69;;;8.54;54.16
67980;BME280;54760;47.490;19.030;2022-12-01T14:34:18;100665.38;;;7.47;58.80
67980;BME280;54760;47.490;19.030;2022-12-01T14:37:01;100670.00;;;7.43;59.09
67980;BME280;54760;47.490;19.030;2022-12-01T14:39:33;100672.44;;;7.69;58.33
67980;BME280;54760;47.490;19.030;2022-12-01T14:47:19;100659.41;;;7.17;60.29
67980;BME280;54760;47.490;19.030;2022-12-01T14:49:57;100657.16;;;7.44;59.91
67980;BME280;54760;47.490;19.030;2022-12-01T14:54:57;100672.00;;;6.81;61.85
67980;BME280;54760;47.490;19.030;2022-12-01T14:57:38;100669.97;;;6.67;62.36
67980;BME280;54760;47.490;19.030;2022-12-01T15:00:24;100667.41;;;6.88;61.23
67980;BME280;54760;47.490;19.030;2022-12-01T15:05:23;100674.69;;;6.74;62.15